logo
Rechercher aéroport 
image banner adimage banner adimage banner ad
image banner ad

OPKW - Kadanwari

Situé à Kadanwari, Pakistan

ICAO - , IATA - KCF

Données fournies par Airmate  

Information générale

Coordonnées: N27°12'6" E69°9'7"
Élévation : 250 feet MSL.
Variation magnétique : 2° East
Voir autres Aéroports à Sindh

Données opérationnelles

Special qualification required
Heure actuelle UTC:
Heure actuelle locale:
METAR: OPSK 152100Z 00000KT 4000 HZ SCT100 33/23 Q0997 NOSIG
TAF: TAF OPSK 151700Z 1518/1618 23008KT 5000 HZ SCT030 SCT100 FM160400 12008KT 5000 HZ SCT040
Voir NOTAMs / SUP AIP / TFR affectant cet aéroport [VIEW]
Fréquences de communication: [VIEW]

Pistes:

Identifiant RWYQFULongueur (ft)Largeur (ft)SurfaceLDA (ft)
127874148ASPH
307874148ASPH

Coordonnées de l'aéroport

Adresse: Kadanwari Pakistan

Vue satellite de OPKW